Hauptseite
METAR-TAF:

METAR-TAF

Flughäfen :

Flughafen Linz

Linz, Österreich

Breite: 48-14N, Länge: 014-11E, Höhe: 298 m

Beobachtung

Neuester Wetterbericht von vor 26 Minuten, um 01:50 UTC
Wind 2 kt aus unterschiedlichen Richtungen
Temperatur -4°C
Luftfeuchtigkeit 80%
Luftdruck 1037 hPa
Sichtweite 10 km oder mehr
Leicht bewölkt in der Höhe von 4400 ft

METAR: LOWL 050150Z AUTO VRB02KT 9999 FEW044 M04/M07 Q1037

Zeit: 03:16 (02:16 UTC)

Prognose

Neuester Wetterbericht von vor 3 Stunden und 1 Minuten, um 23:15 UTC
Gültige Prognose vom 05 um 00 UTC bis 05 um 24 UTC
Wind 3 kt aus unterschiedlichen Richtungen
Sichtweite 10 km oder mehr
keine Wolken unter 1500 m und keine Kumulonimbus oder Gewitterwolken

TAF: LOWL 042315Z 0500/0524 VRB03KT CAVOK TX00/0513Z TNM04/0506Z

Wetterbeobachtungen und Prognosen von mehr als 4000 Flughäfen (METAR und TAF Bericht).

Die verfügbaren Stationen werden durch gelbe und rote Markierungen auf der Karte dargestellt.

Führen Sie die Maus auf sie, um den Namen der Station zu sehen.

Darauf klicken, um die Beobachtung von Wetterbeobachtungen und Prognosen zu sehen.

Um die Karte zu ändern : klicken Sie auf den grünen Tasten mit einem schwarzen Kreuz Zum Vergrößern, auf den grünen Button mit einem Gedankenstrich zu verkleinern, oder auf die grünen Pfeile für benachbarte Karten.


METAR-TAF: